createdAt,value
2022-10-31T00:01:18.939Z,8.93
2022-10-31T00:03:25.144Z,10.43
2022-10-31T00:05:29.986Z,10.93
2022-10-31T00:07:34.746Z,11.63
2022-10-31T00:09:42.096Z,10.68
2022-10-31T00:11:46.854Z,9.43
2022-10-31T00:13:51.696Z,8.20
2022-10-31T00:15:56.413Z,11.93
2022-10-31T00:18:02.637Z,13.40
2022-10-31T00:20:08.412Z,10.07
2022-10-31T00:22:13.138Z,9.20
2022-10-31T00:24:18.053Z,9.85
2022-10-31T00:26:27.688Z,9.57
2022-10-31T00:28:33.580Z,9.32
2022-10-31T00:30:38.393Z,10.00
2022-10-31T00:32:43.298Z,9.90
2022-10-31T00:34:48.021Z,11.10
2022-10-31T00:36:52.812Z,10.98
2022-10-31T00:38:57.838Z,12.85
2022-10-31T00:41:02.955Z,10.82
2022-10-31T00:45:15.551Z,12.10
2022-10-31T00:49:25.130Z,12.25
2022-10-31T00:51:29.939Z,13.25
2022-10-31T00:53:36.066Z,11.27
2022-10-31T00:55:40.999Z,11.68
2022-10-31T00:57:46.060Z,13.07
2022-10-31T00:59:53.367Z,13.75
2022-10-31T01:01:58.298Z,10.98
2022-10-31T01:04:04.152Z,10.15
2022-10-31T01:06:13.448Z,12.48
2022-10-31T01:08:18.314Z,12.52
2022-10-31T01:10:23.220Z,14.65
2022-10-31T01:12:29.839Z,12.60
2022-10-31T01:14:35.566Z,13.23
2022-10-31T01:16:42.935Z,9.27
2022-10-31T01:18:48.016Z,8.88
2022-10-31T01:21:01.138Z,8.65
2022-10-31T01:23:05.975Z,8.77
2022-10-31T01:25:13.182Z,9.20
2022-10-31T01:27:18.107Z,7.70
2022-10-31T01:29:27.347Z,6.85
2022-10-31T01:31:33.857Z,10.18
2022-10-31T01:33:41.821Z,6.80
2022-10-31T01:35:46.811Z,7.07
2022-10-31T01:37:51.582Z,8.63
2022-10-31T01:39:56.319Z,8.90
2022-10-31T01:42:01.324Z,9.68
2022-10-31T01:44:42.309Z,8.70
2022-10-31T01:46:55.431Z,8.68
2022-10-31T01:49:02.838Z,7.68
2022-10-31T01:51:08.594Z,7.45
2022-10-31T01:53:15.550Z,8.60
2022-10-31T01:55:27.757Z,10.20
2022-10-31T01:57:35.706Z,7.57
2022-10-31T01:59:45.929Z,8.88
2022-10-31T02:01:55.525Z,9.45
2022-10-31T02:04:00.476Z,7.82
2022-10-31T02:06:10.146Z,8.68
2022-10-31T02:08:20.564Z,7.38
2022-10-31T02:10:28.891Z,5.70
2022-10-31T02:12:35.822Z,7.50
2022-10-31T02:14:41.682Z,9.32
2022-10-31T02:16:46.456Z,7.57
2022-10-31T02:18:53.835Z,8.65
2022-10-31T02:21:15.011Z,8.50
2022-10-31T02:23:58.056Z,8.27
2022-10-31T02:26:43.352Z,7.03
2022-10-31T02:29:09.350Z,10.70
2022-10-31T02:31:28.404Z,8.93
2022-10-31T02:33:40.035Z,8.48
2022-10-31T02:35:58.017Z,9.88
2022-10-31T02:38:08.321Z,8.52
2022-10-31T02:40:21.240Z,8.18
2022-10-31T02:42:54.139Z,8.68
2022-10-31T02:45:05.361Z,7.15
2022-10-31T02:47:17.578Z,7.57
2022-10-31T02:49:30.629Z,7.63
2022-10-31T02:51:35.533Z,8.40
2022-10-31T02:53:43.787Z,7.32
2022-10-31T02:55:58.724Z,7.32
2022-10-31T02:58:08.773Z,4.80
2022-10-31T03:00:14.702Z,9.85
2022-10-31T03:02:31.717Z,5.47
2022-10-31T03:05:03.504Z,5.13
2022-10-31T03:07:17.917Z,5.25
2022-10-31T03:09:29.155Z,6.03
2022-10-31T03:11:43.899Z,5.70
2022-10-31T03:13:52.617Z,7.22
2022-10-31T03:16:03.078Z,5.90
2022-10-31T03:18:16.216Z,7.95
2022-10-31T03:20:25.820Z,6.90
2022-10-31T03:22:34.106Z,7.15
2022-10-31T03:24:42.956Z,6.93
2022-10-31T03:26:51.487Z,8.27
2022-10-31T03:29:01.038Z,8.93
2022-10-31T03:31:08.486Z,8.35
2022-10-31T03:33:24.555Z,6.63
2022-10-31T03:35:32.773Z,6.22
2022-10-31T03:37:40.207Z,7.22
2022-10-31T03:39:51.847Z,10.82
2022-10-31T03:42:03.724Z,11.18
2022-10-31T03:44:15.863Z,9.85
2022-10-31T03:46:21.423Z,11.10
2022-10-31T03:48:31.315Z,10.13
2022-10-31T03:50:45.469Z,9.00
2022-10-31T03:52:53.701Z,13.13
2022-10-31T03:55:01.856Z,8.75
2022-10-31T03:57:17.311Z,8.00
2022-10-31T03:59:28.583Z,11.55
2022-10-31T04:01:38.130Z,7.50
2022-10-31T04:03:47.493Z,7.22
2022-10-31T04:05:57.294Z,9.75
2022-10-31T04:08:07.066Z,11.45
2022-10-31T04:10:16.052Z,9.15
2022-10-31T04:12:22.964Z,7.18
2022-10-31T04:14:45.147Z,7.45
2022-10-31T04:16:50.248Z,7.10
2022-10-31T04:18:57.839Z,8.25
2022-10-31T04:21:07.915Z,7.45
2022-10-31T04:23:22.179Z,6.40
2022-10-31T04:25:27.825Z,7.85
2022-10-31T04:27:33.156Z,7.45
2022-10-31T04:29:37.958Z,7.93
2022-10-31T04:31:42.707Z,8.05
2022-10-31T04:33:48.098Z,9.15
2022-10-31T04:35:55.662Z,12.10
2022-10-31T04:38:00.467Z,7.95
2022-10-31T04:40:05.341Z,7.90
2022-10-31T04:42:19.506Z,7.22
2022-10-31T04:44:24.532Z,7.82
2022-10-31T04:46:31.407Z,7.95
2022-10-31T04:48:37.118Z,6.32
2022-10-31T04:50:44.545Z,8.70
2022-10-31T04:52:54.300Z,8.80
2022-10-31T04:55:04.291Z,8.98
2022-10-31T04:57:34.938Z,7.47
2022-10-31T04:59:40.588Z,9.90
2022-10-31T05:01:46.759Z,9.82
2022-10-31T05:05:56.335Z,9.43
2022-10-31T05:08:03.861Z,7.95
2022-10-31T05:10:11.058Z,8.27
2022-10-31T05:12:16.462Z,8.32
2022-10-31T05:14:41.463Z,7.85
2022-10-31T05:17:26.325Z,9.87
2022-10-31T05:19:56.778Z,8.88
2022-10-31T05:22:20.112Z,11.57
2022-10-31T05:24:27.464Z,6.45
2022-10-31T05:26:32.417Z,9.57
2022-10-31T05:28:38.578Z,8.32
2022-10-31T05:30:43.741Z,8.57
2022-10-31T05:32:53.946Z,7.97
2022-10-31T05:35:21.251Z,6.60
2022-10-31T05:37:48.763Z,7.43
2022-10-31T05:39:56.106Z,7.90
2022-10-31T05:42:01.419Z,5.57
2022-10-31T05:44:06.260Z,6.93
2022-10-31T05:46:18.363Z,6.47
2022-10-31T05:48:52.460Z,7.20
2022-10-31T05:51:16.613Z,10.15
2022-10-31T05:53:21.754Z,12.02
2022-10-31T05:55:29.575Z,9.80
2022-10-31T05:57:42.716Z,8.88
2022-10-31T05:59:52.349Z,8.85
2022-10-31T06:02:00.751Z,8.35
2022-10-31T06:04:27.968Z,9.10
2022-10-31T06:06:32.844Z,7.88
2022-10-31T06:08:37.697Z,8.55
2022-10-31T06:10:48.702Z,9.50
2022-10-31T06:12:58.532Z,10.40
2022-10-31T06:15:17.710Z,7.03
2022-10-31T06:17:25.623Z,8.82
2022-10-31T06:21:59.328Z,13.30
2022-10-31T06:24:04.151Z,9.00
2022-10-31T06:26:43.625Z,9.15
2022-10-31T06:28:48.582Z,7.25
2022-10-31T06:31:09.119Z,10.85
2022-10-31T06:33:14.488Z,8.80
2022-10-31T06:35:26.352Z,9.55
2022-10-31T06:37:31.510Z,14.43
2022-10-31T06:39:42.864Z,9.60
2022-10-31T06:41:53.608Z,10.40
2022-10-31T06:44:03.549Z,8.40
2022-10-31T06:46:30.138Z,12.38
2022-10-31T06:48:53.524Z,9.70
2022-10-31T06:51:07.482Z,8.20
2022-10-31T06:53:12.729Z,9.00
2022-10-31T06:55:18.053Z,11.38
2022-10-31T06:57:26.975Z,8.93
2022-10-31T06:59:32.656Z,8.25
2022-10-31T07:01:40.050Z,10.32
2022-10-31T07:03:48.486Z,11.77
2022-10-31T07:05:53.406Z,9.18
2022-10-31T07:10:04.027Z,8.70
2022-10-31T07:12:21.749Z,8.82
2022-10-31T07:14:36.776Z,12.07
2022-10-31T07:16:41.655Z,9.02
2022-10-31T07:18:46.649Z,8.38
2022-10-31T07:20:52.322Z,9.38
2022-10-31T07:22:57.502Z,9.98
2022-10-31T07:25:03.107Z,8.27
2022-10-31T07:27:27.800Z,9.43
2022-10-31T07:29:32.652Z,9.60
2022-10-31T07:31:40.053Z,9.95
2022-10-31T07:33:53.830Z,8.25
2022-10-31T07:36:07.743Z,8.02
2022-10-31T07:38:14.435Z,11.93
2022-10-31T07:40:20.662Z,10.07
2022-10-31T07:42:25.539Z,8.52
2022-10-31T07:44:30.365Z,8.43
2022-10-31T07:46:56.198Z,9.82
2022-10-31T07:49:26.960Z,7.97
2022-10-31T07:51:50.465Z,8.75
2022-10-31T07:54:13.844Z,9.07
2022-10-31T07:56:18.713Z,8.85
2022-10-31T07:58:23.516Z,8.82
2022-10-31T08:00:29.680Z,11.13
2022-10-31T08:02:37.470Z,11.93
2022-10-31T08:05:09.339Z,11.30
2022-10-31T08:07:46.031Z,9.65
2022-10-31T08:09:56.595Z,11.95
2022-10-31T08:12:05.183Z,11.52
2022-10-31T08:14:11.982Z,8.68
2022-10-31T08:16:16.912Z,12.15
2022-10-31T08:18:33.520Z,8.98
2022-10-31T08:20:38.479Z,10.32
2022-10-31T08:22:44.026Z,7.97
2022-10-31T08:24:49.561Z,9.68
2022-10-31T08:26:56.335Z,10.32
2022-10-31T08:29:01.075Z,9.75
2022-10-31T08:31:11.123Z,7.90
2022-10-31T08:33:21.323Z,11.57
2022-10-31T08:35:48.606Z,12.73
2022-10-31T08:38:16.996Z,10.00
2022-10-31T08:40:22.021Z,10.57
2022-10-31T08:42:31.403Z,11.93
2022-10-31T08:44:36.772Z,11.05
2022-10-31T08:46:42.921Z,8.77
2022-10-31T08:50:55.104Z,9.23
2022-10-31T08:53:06.093Z,9.23
2022-10-31T08:55:12.824Z,13.27
2022-10-31T08:57:36.227Z,10.93
2022-10-31T09:01:59.531Z,14.93
2022-10-31T09:06:12.049Z,10.57
2022-10-31T09:08:17.745Z,9.20
2022-10-31T09:10:24.906Z,13.80
2022-10-31T09:12:30.123Z,12.93
2022-10-31T09:14:53.620Z,10.55
2022-10-31T09:17:09.550Z,9.75
2022-10-31T09:19:40.189Z,10.07
2022-10-31T09:21:49.369Z,9.55
2022-10-31T09:23:54.933Z,12.93
2022-10-31T09:25:59.750Z,13.70
2022-10-31T09:28:16.812Z,10.15
2022-10-31T09:30:23.500Z,9.35
2022-10-31T09:32:31.157Z,11.07
2022-10-31T09:34:36.036Z,11.15
2022-10-31T09:36:48.112Z,10.75
2022-10-31T09:39:00.246Z,10.02
2022-10-31T09:41:11.597Z,11.38
2022-10-31T09:43:23.781Z,11.75
2022-10-31T09:45:35.120Z,12.90
2022-10-31T09:47:58.347Z,12.77
2022-10-31T09:50:21.578Z,11.13
2022-10-31T09:52:33.659Z,16.40
2022-10-31T09:54:48.717Z,12.95
2022-10-31T09:56:53.717Z,13.85
2022-10-31T09:59:01.911Z,11.65
2022-10-31T10:01:08.765Z,10.85
2022-10-31T10:03:19.712Z,9.88
2022-10-31T10:05:31.929Z,10.85
2022-10-31T10:07:57.533Z,15.07
2022-10-31T10:10:52.280Z,13.70
2022-10-31T10:13:55.803Z,11.23
2022-10-31T10:16:10.920Z,14.18
2022-10-31T10:18:29.423Z,10.98
2022-10-31T10:20:42.659Z,16.77
2022-10-31T10:22:53.466Z,12.20
2022-10-31T10:25:08.499Z,10.77
2022-10-31T10:27:26.465Z,14.88
2022-10-31T10:29:39.663Z,13.85
2022-10-31T10:31:48.213Z,14.13
2022-10-31T10:34:03.642Z,15.38
2022-10-31T10:36:14.179Z,9.88
2022-10-31T10:38:26.458Z,14.65
2022-10-31T10:40:32.633Z,13.63
2022-10-31T10:42:53.147Z,10.65
2022-10-31T10:45:10.315Z,12.57
2022-10-31T10:47:28.063Z,12.88
2022-10-31T10:49:40.288Z,15.32
2022-10-31T10:52:02.207Z,12.73
2022-10-31T10:54:39.247Z,13.65
2022-10-31T10:56:55.236Z,13.25
2022-10-31T10:59:02.622Z,10.75
2022-10-31T11:03:22.708Z,15.27
2022-10-31T11:05:32.519Z,10.70
2022-10-31T11:07:43.934Z,10.23
2022-10-31T11:09:48.777Z,12.88
2022-10-31T11:11:53.610Z,14.43
2022-10-31T11:14:05.621Z,16.88
2022-10-31T11:16:13.480Z,10.65
2022-10-31T11:20:35.773Z,12.15
2022-10-31T11:22:43.519Z,8.60
2022-10-31T11:24:48.357Z,11.57
2022-10-31T11:26:54.923Z,9.75
2022-10-31T11:29:06.621Z,10.73
2022-10-31T11:31:15.757Z,12.65
2022-10-31T11:33:25.622Z,13.82
2022-10-31T11:35:31.211Z,12.25
2022-10-31T11:37:38.871Z,12.23
2022-10-31T11:39:54.186Z,10.68
2022-10-31T11:42:08.798Z,10.88
2022-10-31T11:44:21.101Z,10.30
2022-10-31T11:46:32.466Z,12.85
2022-10-31T11:48:37.442Z,11.30
2022-10-31T11:50:51.108Z,9.63
2022-10-31T11:52:58.017Z,13.02
2022-10-31T11:55:05.057Z,11.18
2022-10-31T11:57:26.455Z,9.23
2022-10-31T11:59:35.474Z,12.10
2022-10-31T12:01:45.155Z,9.60
2022-10-31T12:03:58.699Z,10.32
2022-10-31T12:06:07.469Z,10.30
2022-10-31T12:08:15.451Z,10.18
2022-10-31T12:10:25.112Z,8.02
2022-10-31T12:12:45.350Z,11.38
2022-10-31T12:15:04.300Z,9.13
2022-10-31T12:17:16.494Z,12.27
2022-10-31T12:19:34.315Z,11.43
2022-10-31T12:21:59.436Z,8.43
2022-10-31T12:24:20.462Z,9.27
2022-10-31T12:26:30.188Z,15.40
2022-10-31T12:29:00.578Z,9.43
2022-10-31T12:31:21.605Z,11.10
2022-10-31T12:33:46.351Z,11.57
2022-10-31T12:36:01.603Z,11.63
2022-10-31T12:38:21.910Z,12.45
2022-10-31T12:40:45.550Z,14.07
2022-10-31T12:43:05.726Z,10.60
2022-10-31T12:45:33.806Z,13.75
2022-10-31T12:48:03.920Z,9.52
2022-10-31T12:50:23.877Z,10.93
2022-10-31T12:52:46.872Z,8.32
2022-10-31T12:55:04.911Z,11.80
2022-10-31T12:57:20.891Z,12.45
2022-10-31T12:59:33.772Z,11.02
2022-10-31T13:01:42.801Z,12.57
2022-10-31T13:03:59.788Z,12.68
2022-10-31T13:06:10.248Z,14.02
2022-10-31T13:08:18.335Z,13.05
2022-10-31T13:10:28.398Z,13.20
2022-10-31T13:12:37.540Z,11.60
2022-10-31T13:14:46.727Z,15.32
2022-10-31T13:16:53.051Z,12.38
2022-10-31T13:19:05.668Z,12.13
2022-10-31T13:21:15.450Z,13.15
2022-10-31T13:23:49.172Z,15.52
2022-10-31T13:25:57.342Z,14.63
2022-10-31T13:28:06.490Z,17.50
2022-10-31T13:30:18.591Z,14.65
2022-10-31T13:32:23.543Z,18.17
2022-10-31T13:36:44.176Z,16.50
2022-10-31T13:38:56.578Z,18.92
2022-10-31T13:41:05.556Z,12.68
2022-10-31T13:43:18.407Z,16.60
2022-10-31T13:45:26.078Z,21.85
2022-10-31T13:47:32.717Z,14.45
2022-10-31T13:49:44.079Z,17.58
2022-10-31T13:51:49.865Z,14.65
2022-10-31T13:54:02.906Z,10.48
2022-10-31T13:56:19.233Z,12.98
2022-10-31T13:58:28.005Z,15.48
2022-10-31T14:00:35.901Z,17.35
2022-10-31T14:02:50.599Z,14.30
2022-10-31T14:05:01.702Z,15.43
2022-10-31T14:07:12.074Z,13.68
2022-10-31T14:09:26.044Z,10.57
2022-10-31T14:11:36.085Z,11.73
2022-10-31T14:13:47.756Z,10.00
2022-10-31T14:15:59.347Z,8.40
2022-10-31T14:18:07.587Z,16.08
2022-10-31T14:20:39.844Z,10.95
2022-10-31T14:22:45.481Z,12.02
2022-10-31T14:24:50.350Z,9.00
2022-10-31T14:26:56.903Z,9.25
2022-10-31T14:29:03.710Z,8.52
2022-10-31T14:31:37.946Z,7.82
2022-10-31T14:33:46.760Z,9.30
2022-10-31T14:36:01.730Z,10.40
2022-10-31T14:38:22.413Z,10.45
2022-10-31T14:40:33.559Z,9.85
2022-10-31T14:42:58.806Z,12.85
2022-10-31T14:45:17.538Z,10.02
2022-10-31T14:47:31.281Z,12.60
2022-10-31T14:49:53.249Z,13.00
2022-10-31T14:52:00.851Z,12.23
2022-10-31T14:54:08.332Z,9.50
2022-10-31T14:56:15.212Z,15.00
2022-10-31T14:58:25.024Z,8.73
2022-10-31T15:00:32.889Z,13.88
2022-10-31T15:02:45.709Z,10.38
2022-10-31T15:04:52.405Z,11.88
2022-10-31T15:07:03.326Z,12.38
2022-10-31T15:09:08.269Z,10.85
2022-10-31T15:11:17.502Z,14.32
2022-10-31T15:13:24.806Z,15.95
2022-10-31T15:15:31.718Z,11.70
2022-10-31T15:17:36.583Z,10.88
2022-10-31T15:19:42.119Z,9.48
2022-10-31T15:21:48.709Z,10.05
2022-10-31T15:23:58.796Z,11.90
2022-10-31T15:26:04.731Z,9.15
2022-10-31T15:28:17.867Z,13.32
2022-10-31T15:30:25.443Z,13.38
2022-10-31T15:32:32.611Z,12.15
2022-10-31T15:34:43.183Z,12.73
2022-10-31T15:36:51.884Z,12.90
2022-10-31T15:39:00.229Z,10.15
2022-10-31T15:41:08.865Z,9.77
2022-10-31T15:43:19.731Z,13.63
2022-10-31T15:45:28.560Z,10.63
2022-10-31T15:47:37.737Z,14.35
2022-10-31T15:49:45.612Z,10.30
2022-10-31T15:51:54.255Z,11.70
2022-10-31T15:54:03.718Z,10.63
2022-10-31T15:56:12.485Z,11.25
2022-10-31T15:58:20.023Z,12.23
2022-10-31T16:00:32.371Z,8.98
2022-10-31T16:02:37.328Z,15.07
2022-10-31T16:07:20.215Z,15.02
2022-10-31T16:09:30.604Z,15.02
2022-10-31T16:11:39.434Z,14.95
2022-10-31T16:13:56.504Z,15.02
2022-10-31T16:16:33.079Z,12.90
2022-10-31T16:18:38.479Z,10.68
2022-10-31T16:20:43.384Z,12.83
2022-10-31T16:22:53.749Z,10.20
2022-10-31T16:25:07.055Z,11.23
2022-10-31T16:27:35.571Z,11.68
2022-10-31T16:29:46.727Z,11.70
2022-10-31T16:31:51.620Z,18.60
2022-10-31T16:34:05.942Z,20.50
2022-10-31T16:36:35.670Z,19.15
2022-10-31T16:38:41.787Z,16.40
2022-10-31T16:40:49.508Z,15.70
2022-10-31T16:42:54.915Z,14.52
2022-10-31T16:44:59.670Z,15.52
2022-10-31T16:47:17.513Z,12.10
2022-10-31T16:49:22.240Z,16.20
2022-10-31T16:51:27.129Z,15.38
2022-10-31T16:53:32.407Z,16.73
2022-10-31T16:55:37.306Z,17.45
2022-10-31T16:57:47.317Z,19.23
2022-10-31T16:59:56.771Z,18.42
2022-10-31T17:02:03.564Z,17.95
2022-10-31T17:04:08.810Z,19.77
2022-10-31T17:08:22.745Z,15.82
2022-10-31T17:10:28.691Z,17.38
2022-10-31T17:12:33.857Z,17.23
2022-10-31T17:17:04.610Z,20.95
2022-10-31T17:19:11.679Z,17.85
2022-10-31T17:21:23.220Z,18.58
2022-10-31T17:23:33.189Z,13.20
2022-10-31T17:25:38.820Z,13.82
2022-10-31T17:27:47.365Z,12.25
2022-10-31T17:29:55.385Z,15.13
2022-10-31T17:32:01.835Z,15.90
2022-10-31T17:34:06.881Z,15.85
2022-10-31T17:38:16.846Z,36.00
2022-10-31T17:42:27.513Z,35.58
2022-10-31T17:44:33.527Z,35.00
2022-10-31T17:46:43.641Z,30.35
2022-10-31T17:48:48.596Z,27.70
2022-10-31T17:52:58.336Z,25.35
2022-10-31T17:55:04.016Z,26.15
2022-10-31T17:57:08.867Z,27.58
2022-10-31T17:59:13.687Z,26.33
2022-10-31T18:01:20.664Z,23.38
2022-10-31T18:03:28.845Z,26.27
2022-10-31T18:05:33.841Z,18.42
2022-10-31T18:07:38.911Z,22.38
2022-10-31T18:09:43.766Z,23.05
2022-10-31T18:11:48.729Z,23.42
2022-10-31T18:13:58.105Z,23.42
2022-10-31T18:16:02.978Z,24.63
2022-10-31T18:18:08.414Z,31.75
2022-10-31T18:20:15.897Z,46.92
2022-10-31T18:22:20.687Z,33.70
2022-10-31T18:24:28.524Z,29.23
2022-10-31T18:26:33.260Z,34.88
2022-10-31T18:28:39.402Z,26.77
2022-10-31T18:30:44.607Z,21.60
2022-10-31T18:34:56.735Z,23.85
2022-10-31T18:37:04.075Z,24.85
2022-10-31T18:39:08.990Z,21.60
2022-10-31T18:41:14.732Z,23.52
2022-10-31T18:43:19.472Z,24.67
2022-10-31T18:45:46.669Z,20.63
2022-10-31T18:47:53.716Z,23.75
2022-10-31T18:49:58.531Z,25.77
2022-10-31T18:52:05.885Z,27.83
2022-10-31T18:54:12.226Z,21.88
2022-10-31T18:56:17.059Z,25.48
2022-10-31T18:58:21.855Z,25.48
2022-10-31T19:00:26.599Z,31.45
2022-10-31T19:02:31.528Z,39.85
2022-10-31T19:04:36.295Z,33.13
2022-10-31T19:06:42.286Z,26.45
2022-10-31T19:08:49.628Z,27.83
2022-10-31T19:10:54.474Z,29.30
2022-10-31T19:12:59.486Z,38.85
2022-10-31T19:17:09.101Z,45.15
2022-10-31T19:19:13.880Z,49.67
2022-10-31T19:21:20.490Z,49.75
2022-10-31T19:23:25.549Z,45.80
2022-10-31T19:25:32.987Z,37.38
2022-10-31T19:27:37.877Z,33.45
2022-10-31T19:29:43.110Z,25.05
2022-10-31T19:33:53.618Z,24.25
2022-10-31T19:36:02.807Z,27.17
2022-10-31T19:38:07.654Z,29.85
2022-10-31T19:40:14.124Z,27.15
2022-10-31T19:42:21.503Z,25.40
2022-10-31T19:44:26.387Z,26.38
2022-10-31T19:46:52.851Z,26.05
2022-10-31T19:48:56.050Z,27.63
2022-10-31T19:51:04.481Z,23.95
2022-10-31T19:53:09.614Z,26.40
2022-10-31T19:57:30.837Z,29.92
2022-10-31T19:59:46.271Z,28.20
2022-10-31T20:01:51.103Z,26.27
2022-10-31T20:03:55.892Z,24.83
2022-10-31T20:06:00.941Z,24.38
2022-10-31T20:08:05.971Z,24.95
2022-10-31T20:10:11.865Z,24.05
2022-10-31T20:12:16.607Z,27.15
2022-10-31T20:14:23.943Z,25.25
2022-10-31T20:16:30.377Z,23.55
2022-10-31T20:18:35.895Z,21.92
2022-10-31T20:20:40.883Z,22.13
2022-10-31T20:22:49.845Z,26.30
2022-10-31T20:24:54.615Z,23.83
2022-10-31T20:26:59.476Z,25.52
2022-10-31T20:29:05.169Z,25.60
2022-10-31T20:31:15.553Z,23.50
2022-10-31T20:33:20.414Z,18.45
2022-10-31T20:35:26.314Z,21.98
2022-10-31T20:37:31.093Z,24.90
2022-10-31T20:39:36.856Z,20.88
2022-10-31T20:41:41.799Z,22.35
2022-10-31T20:43:49.658Z,18.60
2022-10-31T20:45:54.411Z,23.48
2022-10-31T20:48:02.511Z,22.50
2022-10-31T20:50:08.636Z,20.20
2022-10-31T20:52:13.463Z,23.23
2022-10-31T20:54:20.036Z,23.02
2022-10-31T20:56:26.873Z,22.58
2022-10-31T20:58:31.656Z,24.58
2022-10-31T21:00:36.876Z,20.98
2022-10-31T21:02:43.267Z,24.25
2022-10-31T21:04:50.707Z,19.80
2022-10-31T21:06:55.539Z,20.15
2022-10-31T21:09:00.961Z,20.63
2022-10-31T21:11:11.988Z,17.52
2022-10-31T21:13:16.977Z,17.02
2022-10-31T21:15:21.736Z,20.80
2022-10-31T21:17:26.490Z,21.13
2022-10-31T21:19:31.258Z,21.52
2022-10-31T21:21:39.882Z,17.88
2022-10-31T21:23:45.838Z,19.75
2022-10-31T21:25:50.807Z,22.08
2022-10-31T21:27:55.640Z,21.05
2022-10-31T21:30:01.020Z,22.40
2022-10-31T21:32:05.928Z,19.35
2022-10-31T21:34:11.565Z,21.48
2022-10-31T21:36:17.128Z,21.10
2022-10-31T21:38:24.649Z,18.75
2022-10-31T21:40:30.082Z,22.67
2022-10-31T21:42:34.912Z,26.40
2022-10-31T21:44:39.680Z,19.80
2022-10-31T21:46:45.047Z,19.85
2022-10-31T21:48:51.010Z,20.23
2022-10-31T21:50:55.805Z,21.20
2022-10-31T21:53:22.394Z,18.00
2022-10-31T21:55:27.216Z,21.13
2022-10-31T21:57:31.975Z,20.13
2022-10-31T21:59:36.768Z,20.52
2022-10-31T22:01:41.699Z,21.80
2022-10-31T22:03:46.645Z,17.95
2022-10-31T22:05:51.404Z,23.17
2022-10-31T22:07:56.559Z,20.50
2022-10-31T22:12:09.886Z,20.73
2022-10-31T22:14:16.603Z,19.35
2022-10-31T22:16:26.929Z,17.98
2022-10-31T22:18:31.990Z,17.08
2022-10-31T22:20:36.785Z,20.05
2022-10-31T22:22:41.550Z,22.02
2022-10-31T22:24:49.245Z,17.50
2022-10-31T22:26:54.024Z,17.55
2022-10-31T22:29:02.409Z,16.38
2022-10-31T22:31:07.870Z,17.88
2022-10-31T22:33:12.661Z,19.88
2022-10-31T22:35:17.733Z,18.63
2022-10-31T22:37:22.521Z,21.02
2022-10-31T22:39:27.285Z,17.08
2022-10-31T22:41:34.476Z,16.08
2022-10-31T22:43:39.631Z,15.20
2022-10-31T22:48:00.988Z,18.58
2022-10-31T22:50:06.194Z,19.15
2022-10-31T22:52:11.469Z,18.90
2022-10-31T22:54:18.313Z,19.23
2022-10-31T22:56:24.429Z,19.17
2022-10-31T22:58:29.214Z,16.92
2022-10-31T23:00:34.076Z,22.63
2022-10-31T23:02:41.696Z,18.05
2022-10-31T23:04:46.487Z,17.10
2022-10-31T23:06:51.872Z,18.00
2022-10-31T23:11:01.924Z,20.13
2022-10-31T23:13:19.204Z,15.02
2022-10-31T23:15:23.987Z,19.52
2022-10-31T23:17:28.965Z,16.27
2022-10-31T23:19:36.360Z,20.08
2022-10-31T23:22:00.300Z,17.50
2022-10-31T23:24:05.428Z,22.38
2022-10-31T23:26:22.807Z,17.92
2022-10-31T23:28:27.623Z,17.10
2022-10-31T23:30:32.394Z,16.98
2022-10-31T23:32:39.186Z,17.48
2022-10-31T23:34:48.536Z,21.00
2022-10-31T23:36:53.382Z,16.52
2022-10-31T23:38:58.185Z,18.45
2022-10-31T23:41:03.017Z,20.50
2022-10-31T23:43:07.794Z,17.45
2022-10-31T23:45:12.839Z,16.67
2022-10-31T23:47:18.454Z,19.30
2022-10-31T23:49:23.587Z,17.33
2022-10-31T23:51:31.065Z,15.27
2022-10-31T23:55:40.547Z,18.38
2022-10-31T23:57:45.760Z,19.20
